createdAt,value
2023-01-28T00:01:33.745Z,16.95
2023-01-28T00:04:01.471Z,17.80
2023-01-28T00:06:28.895Z,18.50
2023-01-28T00:08:56.311Z,17.00
2023-01-28T00:11:23.985Z,17.45
2023-01-28T00:13:52.970Z,18.50
2023-01-28T00:16:22.699Z,17.75
2023-01-28T00:18:51.832Z,18.60
2023-01-28T00:21:19.260Z,17.33
2023-01-28T00:23:54.835Z,16.65
2023-01-28T00:26:23.877Z,17.90
2023-01-28T00:28:51.413Z,18.58
2023-01-28T00:31:22.379Z,17.95
2023-01-28T00:33:51.235Z,18.52
2023-01-28T00:36:19.786Z,18.08
2023-01-28T00:38:56.117Z,18.12
2023-01-28T00:41:26.236Z,18.37
2023-01-28T00:43:54.108Z,17.30
2023-01-28T00:46:22.833Z,19.17
2023-01-28T00:48:50.682Z,17.92
2023-01-28T00:51:20.118Z,19.55
2023-01-28T00:53:49.881Z,18.87
2023-01-28T00:56:19.462Z,19.48
2023-01-28T00:58:47.328Z,19.52
2023-01-28T01:01:18.445Z,19.35
2023-01-28T01:03:46.623Z,19.52
2023-01-28T01:06:16.333Z,19.08
2023-01-28T01:08:50.128Z,18.60
2023-01-28T01:11:19.014Z,18.77
2023-01-28T01:13:56.884Z,18.55
2023-01-28T01:16:27.509Z,18.85
2023-01-28T01:18:55.895Z,17.87
2023-01-28T01:21:25.082Z,18.10
2023-01-28T01:23:53.636Z,19.45
2023-01-28T01:26:22.946Z,17.20
2023-01-28T01:28:52.152Z,18.40
2023-01-28T01:31:21.427Z,18.12
2023-01-28T01:33:50.505Z,18.20
2023-01-28T01:36:20.038Z,18.37
2023-01-28T01:38:48.529Z,16.67
2023-01-28T01:41:28.932Z,17.95
2023-01-28T01:44:02.658Z,17.17
2023-01-28T01:46:39.671Z,18.27
2023-01-28T01:49:20.388Z,19.75
2023-01-28T01:51:51.137Z,18.75
2023-01-28T01:54:19.304Z,19.05
2023-01-28T01:56:47.845Z,19.85
2023-01-28T01:59:19.200Z,22.17
2023-01-28T02:01:47.328Z,20.40
2023-01-28T02:04:20.463Z,21.83
2023-01-28T02:06:48.610Z,19.87
2023-01-28T02:09:27.011Z,19.70
2023-01-28T02:11:56.947Z,21.05
2023-01-28T02:14:31.388Z,21.85
2023-01-28T02:17:02.313Z,21.95
2023-01-28T02:19:38.089Z,20.25
2023-01-28T02:22:10.294Z,21.80
2023-01-28T02:25:00.312Z,21.08
2023-01-28T02:27:58.708Z,21.02
2023-01-28T02:30:30.966Z,19.73
2023-01-28T02:33:06.999Z,20.08
2023-01-28T02:35:39.044Z,19.55
2023-01-28T02:38:13.610Z,18.92
2023-01-28T02:41:02.229Z,18.95
2023-01-28T02:43:32.489Z,19.15
2023-01-28T02:46:19.290Z,18.80
2023-01-28T02:48:47.089Z,18.45
2023-01-28T02:51:26.267Z,19.27
2023-01-28T02:54:12.800Z,20.17
2023-01-28T02:56:48.019Z,19.42
2023-01-28T02:59:37.067Z,19.65
2023-01-28T03:02:38.331Z,18.67
2023-01-28T03:05:11.980Z,21.50
2023-01-28T03:07:39.773Z,20.23
2023-01-28T03:10:10.079Z,20.02
2023-01-28T03:12:58.657Z,20.88
2023-01-28T03:15:48.366Z,21.37
2023-01-28T03:19:04.382Z,20.70
2023-01-28T03:21:55.391Z,21.12
2023-01-28T03:24:49.236Z,18.50
2023-01-28T03:27:44.740Z,19.58
2023-01-28T03:30:35.716Z,20.08
2023-01-28T03:33:23.514Z,19.95
2023-01-28T03:36:09.430Z,20.83
2023-01-28T03:38:43.043Z,20.50
2023-01-28T03:41:11.537Z,21.50
2023-01-28T03:43:39.311Z,19.35
2023-01-28T03:46:06.875Z,21.30
2023-01-28T03:48:35.570Z,20.42
2023-01-28T03:51:04.170Z,20.80
2023-01-28T03:53:33.266Z,20.10
2023-01-28T03:56:00.709Z,19.75
2023-01-28T03:58:46.069Z,20.17
2023-01-28T04:03:42.998Z,19.92
2023-01-28T04:06:10.981Z,18.48
2023-01-28T04:08:40.111Z,20.40
2023-01-28T04:11:19.366Z,20.70
2023-01-28T04:13:48.483Z,19.87
2023-01-28T04:16:17.769Z,20.88
2023-01-28T04:18:45.402Z,20.05
2023-01-28T04:21:13.887Z,19.83
2023-01-28T04:23:41.625Z,19.92
2023-01-28T04:26:09.866Z,21.80
2023-01-28T04:28:38.163Z,20.42
2023-01-28T04:31:06.872Z,21.17
2023-01-28T04:33:35.076Z,20.50
2023-01-28T04:36:02.787Z,19.83
2023-01-28T04:38:31.105Z,19.55
2023-01-28T04:40:58.764Z,19.10
2023-01-28T04:43:26.309Z,19.65
2023-01-28T04:45:54.485Z,19.83
2023-01-28T04:48:21.959Z,21.37
2023-01-28T04:50:50.927Z,19.58
2023-01-28T04:53:18.839Z,19.50
2023-01-28T04:55:46.748Z,19.73
2023-01-28T04:58:14.242Z,19.70
2023-01-28T05:00:42.572Z,19.08
2023-01-28T05:03:12.102Z,19.37
2023-01-28T05:05:39.545Z,19.95
2023-01-28T05:08:09.149Z,20.20
2023-01-28T05:10:36.812Z,18.92
2023-01-28T05:13:04.583Z,19.00
2023-01-28T05:15:32.345Z,19.52
2023-01-28T05:18:00.167Z,22.42
2023-01-28T05:20:29.132Z,20.90
2023-01-28T05:22:57.402Z,18.70
2023-01-28T05:25:24.958Z,20.35
2023-01-28T05:27:52.760Z,19.23
2023-01-28T05:30:20.946Z,19.85
2023-01-28T05:32:48.680Z,20.45
2023-01-28T05:35:16.943Z,16.20
2023-01-28T05:37:44.989Z,17.02
2023-01-28T05:40:13.120Z,17.48
2023-01-28T05:42:40.790Z,19.58
2023-01-28T05:45:10.052Z,21.05
2023-01-28T05:47:38.633Z,22.10
2023-01-28T05:50:07.461Z,21.92
2023-01-28T05:52:35.335Z,22.50
2023-01-28T05:55:03.129Z,22.30
2023-01-28T05:57:30.603Z,22.20
2023-01-28T05:59:58.362Z,20.37
2023-01-28T06:02:25.887Z,21.02
2023-01-28T06:04:54.193Z,20.77
2023-01-28T06:07:21.755Z,19.98
2023-01-28T06:09:49.385Z,21.45
2023-01-28T06:12:17.390Z,24.25
2023-01-28T06:14:46.833Z,24.77
2023-01-28T06:17:14.666Z,27.80
2023-01-28T06:19:44.295Z,27.80
2023-01-28T06:22:11.861Z,25.95
2023-01-28T06:24:39.451Z,42.00
2023-01-28T06:27:07.230Z,30.20
2023-01-28T06:29:34.682Z,30.65
2023-01-28T06:32:02.110Z,23.27
2023-01-28T06:34:29.897Z,23.52
2023-01-28T06:36:57.318Z,23.33
2023-01-28T06:39:27.000Z,24.08
2023-01-28T06:41:54.687Z,25.02
2023-01-28T06:44:23.542Z,24.10
2023-01-28T06:46:51.148Z,24.75
2023-01-28T06:49:18.812Z,24.15
2023-01-28T06:51:46.194Z,26.40
2023-01-28T06:54:13.626Z,27.17
2023-01-28T06:56:41.377Z,22.45
2023-01-28T06:59:08.927Z,24.37
2023-01-28T07:01:36.640Z,23.45
2023-01-28T07:04:04.452Z,23.12
2023-01-28T07:06:31.818Z,21.00
2023-01-28T07:08:59.233Z,20.77
2023-01-28T07:11:27.003Z,20.05
2023-01-28T07:13:54.481Z,18.25
2023-01-28T07:16:22.340Z,20.80
2023-01-28T07:18:51.231Z,19.20
2023-01-28T07:21:18.634Z,18.42
2023-01-28T07:23:46.018Z,18.48
2023-01-28T07:26:14.370Z,20.85
2023-01-28T07:28:41.751Z,19.33
2023-01-28T07:31:09.382Z,19.12
2023-01-28T07:33:37.162Z,18.27
2023-01-28T07:36:04.930Z,20.65
2023-01-28T07:38:32.339Z,17.42
2023-01-28T07:41:00.023Z,16.40
2023-01-28T07:43:27.404Z,15.82
2023-01-28T07:45:54.824Z,16.10
2023-01-28T07:48:22.573Z,17.85
2023-01-28T07:50:51.890Z,16.83
2023-01-28T07:53:20.131Z,16.62
2023-01-28T07:55:47.820Z,18.62
2023-01-28T07:58:15.243Z,18.50
2023-01-28T08:00:42.662Z,16.25
2023-01-28T08:03:15.833Z,17.08
2023-01-28T08:05:48.317Z,16.40
2023-01-28T08:08:16.830Z,16.25
2023-01-28T08:10:45.073Z,16.60
2023-01-28T08:13:14.061Z,18.42
2023-01-28T08:15:41.978Z,16.77
2023-01-28T08:18:13.198Z,19.37
2023-01-28T08:20:42.982Z,21.35
2023-01-28T08:23:16.248Z,20.85
2023-01-28T08:25:44.104Z,17.85
2023-01-28T08:28:12.383Z,18.15
2023-01-28T08:30:40.666Z,18.75
2023-01-28T08:33:09.818Z,19.70
2023-01-28T08:35:37.752Z,21.15
2023-01-28T08:38:06.563Z,18.17
2023-01-28T08:40:34.370Z,18.95
2023-01-28T08:43:02.494Z,20.80
2023-01-28T08:45:30.313Z,18.67
2023-01-28T08:48:03.128Z,17.85
2023-01-28T08:50:34.386Z,16.98
2023-01-28T08:53:04.616Z,18.30
2023-01-28T08:55:33.597Z,17.00
2023-01-28T08:58:05.938Z,17.35
2023-01-28T09:00:34.944Z,17.90
2023-01-28T09:03:04.709Z,16.90
2023-01-28T09:05:37.466Z,16.67
2023-01-28T09:08:13.163Z,14.13
2023-01-28T09:10:42.139Z,15.85
2023-01-28T09:13:16.132Z,13.43
2023-01-28T09:15:44.271Z,15.93
2023-01-28T09:18:11.710Z,15.90
2023-01-28T09:20:40.317Z,16.17
2023-01-28T09:23:08.270Z,18.00
2023-01-28T09:25:39.003Z,17.12
2023-01-28T09:28:06.461Z,17.27
2023-01-28T09:30:37.065Z,17.92
2023-01-28T09:33:06.182Z,16.42
2023-01-28T09:35:34.381Z,16.70
2023-01-28T09:38:01.810Z,19.05
2023-01-28T09:40:34.727Z,16.85
2023-01-28T09:43:38.167Z,16.50
2023-01-28T09:46:06.555Z,17.87
2023-01-28T09:48:42.073Z,18.65
2023-01-28T09:51:27.262Z,15.90
2023-01-28T09:53:58.532Z,17.08
2023-01-28T09:56:30.628Z,18.20
2023-01-28T09:59:06.137Z,18.12
2023-01-28T10:01:44.736Z,18.27
2023-01-28T10:04:23.235Z,18.50
2023-01-28T10:07:11.248Z,18.90
2023-01-28T10:09:53.922Z,17.67
2023-01-28T10:12:42.629Z,17.62
2023-01-28T10:15:34.681Z,15.80
2023-01-28T10:18:16.556Z,15.18
2023-01-28T10:20:56.133Z,15.25
2023-01-28T10:23:49.305Z,16.70
2023-01-28T10:26:23.400Z,15.68
2023-01-28T10:28:55.775Z,16.48
2023-01-28T10:31:24.660Z,18.00
2023-01-28T10:33:52.123Z,18.37
2023-01-28T10:36:19.727Z,17.73
2023-01-28T10:38:47.580Z,16.80
2023-01-28T10:41:20.955Z,17.35
2023-01-28T10:43:49.862Z,18.98
2023-01-28T10:46:28.459Z,16.90
2023-01-28T10:49:41.878Z,17.50
2023-01-28T10:52:14.118Z,16.67
2023-01-28T10:54:41.791Z,17.08
2023-01-28T10:57:14.678Z,17.67
2023-01-28T10:59:43.026Z,17.90
2023-01-28T11:02:27.288Z,15.77
2023-01-28T11:05:28.665Z,16.62
2023-01-28T11:08:19.446Z,18.95
2023-01-28T11:10:48.889Z,17.20
2023-01-28T11:13:21.721Z,17.05
2023-01-28T11:16:17.616Z,14.45
2023-01-28T11:18:52.853Z,16.58
2023-01-28T11:21:23.762Z,16.30
2023-01-28T11:24:05.026Z,16.23
2023-01-28T11:26:38.347Z,17.83
2023-01-28T11:29:06.344Z,17.10
2023-01-28T11:31:40.985Z,16.77
2023-01-28T11:34:08.400Z,15.18
2023-01-28T11:36:36.086Z,15.27
2023-01-28T11:39:18.234Z,18.73
2023-01-28T11:41:47.221Z,18.60
2023-01-28T11:44:23.692Z,17.50
2023-01-28T11:47:12.449Z,16.60
2023-01-28T11:49:49.021Z,16.67
2023-01-28T11:52:48.630Z,14.40
2023-01-28T11:55:40.764Z,15.43
2023-01-28T11:58:32.210Z,16.08
2023-01-28T12:01:17.877Z,15.80
2023-01-28T12:04:20.811Z,14.20
2023-01-28T12:07:13.253Z,15.13
2023-01-28T12:10:24.965Z,13.20
2023-01-28T12:12:58.729Z,14.63
2023-01-28T12:16:01.790Z,13.55
2023-01-28T12:18:41.269Z,15.20
2023-01-28T12:21:39.241Z,14.35
2023-01-28T12:24:21.861Z,14.02
2023-01-28T12:26:55.441Z,15.07
2023-01-28T12:29:27.388Z,14.55
2023-01-28T12:32:08.543Z,14.45
2023-01-28T12:34:50.222Z,13.40
2023-01-28T12:37:47.262Z,14.48
2023-01-28T12:40:45.449Z,14.77
2023-01-28T12:43:26.784Z,14.70
2023-01-28T12:45:58.043Z,13.57
2023-01-28T12:48:30.748Z,11.50
2023-01-28T12:51:12.753Z,14.77
2023-01-28T12:53:47.120Z,13.07
2023-01-28T12:56:18.071Z,14.43
2023-01-28T12:58:50.785Z,15.02
2023-01-28T13:01:35.756Z,14.48
2023-01-28T13:04:12.721Z,14.40
2023-01-28T13:07:02.854Z,15.38
2023-01-28T13:09:36.215Z,14.90
2023-01-28T13:12:04.571Z,15.82
2023-01-28T13:14:33.352Z,14.48
2023-01-28T13:17:11.963Z,13.88
2023-01-28T13:19:42.721Z,14.70
2023-01-28T13:22:31.817Z,13.68
2023-01-28T13:25:23.181Z,13.05
2023-01-28T13:28:06.821Z,11.23
2023-01-28T13:30:47.177Z,15.93
2023-01-28T13:33:32.507Z,14.93
2023-01-28T13:36:06.010Z,14.73
2023-01-28T13:38:34.147Z,12.98
2023-01-28T13:41:04.523Z,13.00
2023-01-28T13:43:34.907Z,13.35
2023-01-28T13:46:13.862Z,14.68
2023-01-28T13:48:46.970Z,10.80
2023-01-28T13:51:23.540Z,13.07
2023-01-28T13:53:58.820Z,13.13
2023-01-28T13:56:29.905Z,10.55
2023-01-28T13:59:08.121Z,14.27
2023-01-28T14:01:47.290Z,14.38
2023-01-28T14:04:36.599Z,11.63
2023-01-28T14:07:39.413Z,12.75
2023-01-28T14:10:26.713Z,12.73
2023-01-28T14:13:26.970Z,16.23
2023-01-28T14:15:59.047Z,13.98
2023-01-28T14:18:29.418Z,15.43
2023-01-28T14:21:01.605Z,13.95
2023-01-28T14:23:32.329Z,13.85
2023-01-28T14:26:10.142Z,12.93
2023-01-28T14:29:22.813Z,12.45
2023-01-28T14:31:51.054Z,14.05
2023-01-28T14:34:47.864Z,15.27
2023-01-28T14:37:18.854Z,14.55
2023-01-28T14:39:52.712Z,13.98
2023-01-28T14:42:25.788Z,12.98
2023-01-28T14:45:29.847Z,13.60
2023-01-28T14:48:20.870Z,14.63
2023-01-28T14:51:25.732Z,13.25
2023-01-28T14:54:11.890Z,14.43
2023-01-28T14:57:11.613Z,13.13
2023-01-28T14:59:43.455Z,13.55
2023-01-28T15:02:20.179Z,13.68
2023-01-28T15:04:48.220Z,14.70
2023-01-28T15:07:26.687Z,17.50
2023-01-28T15:10:05.385Z,16.30
2023-01-28T15:12:38.982Z,11.98
2023-01-28T15:15:28.390Z,14.45
2023-01-28T15:18:02.227Z,13.32
2023-01-28T15:20:30.160Z,13.57
2023-01-28T15:22:58.278Z,15.02
2023-01-28T15:25:28.631Z,13.07
2023-01-28T15:27:59.824Z,20.00
2023-01-28T15:30:30.579Z,17.40
2023-01-28T15:33:17.100Z,16.75
2023-01-28T15:35:49.007Z,15.10
2023-01-28T15:38:20.274Z,18.10
2023-01-28T15:40:55.121Z,14.95
2023-01-28T15:43:25.984Z,18.55
2023-01-28T15:45:57.702Z,14.68
2023-01-28T15:48:27.513Z,16.85
2023-01-28T15:51:25.065Z,15.48
2023-01-28T15:53:57.497Z,14.68
2023-01-28T15:56:27.872Z,17.37
2023-01-28T15:59:16.717Z,15.48
2023-01-28T16:01:44.269Z,17.60
2023-01-28T16:04:27.109Z,28.83
2023-01-28T16:06:56.544Z,16.98
2023-01-28T16:09:28.705Z,17.27
2023-01-28T16:12:04.054Z,17.95
2023-01-28T16:14:37.804Z,15.32
2023-01-28T16:17:05.424Z,15.73
2023-01-28T16:19:41.756Z,14.70
2023-01-28T16:22:21.804Z,15.43
2023-01-28T16:24:53.029Z,13.18
2023-01-28T16:27:22.300Z,13.70
2023-01-28T16:29:50.526Z,14.00
2023-01-28T16:32:33.497Z,12.80
2023-01-28T16:35:02.025Z,16.58
2023-01-28T16:37:29.948Z,15.48
2023-01-28T16:40:00.290Z,18.08
2023-01-28T16:42:31.927Z,13.50
2023-01-28T16:44:59.991Z,16.50
2023-01-28T16:47:30.639Z,13.32
2023-01-28T16:49:58.757Z,15.32
2023-01-28T16:52:27.032Z,16.23
2023-01-28T16:54:54.801Z,15.60
2023-01-28T16:57:22.855Z,11.88
2023-01-28T16:59:50.598Z,15.50
2023-01-28T17:02:18.106Z,16.10
2023-01-28T17:04:46.835Z,15.80
2023-01-28T17:07:14.598Z,17.33
2023-01-28T17:09:42.194Z,16.33
2023-01-28T17:12:10.052Z,14.93
2023-01-28T17:14:39.419Z,17.48
2023-01-28T17:17:07.029Z,17.15
2023-01-28T17:19:35.108Z,16.05
2023-01-28T17:22:02.613Z,18.15
2023-01-28T17:24:30.605Z,17.60
2023-01-28T17:26:58.694Z,16.33
2023-01-28T17:29:27.282Z,15.63
2023-01-28T17:31:55.376Z,15.23
2023-01-28T17:34:24.023Z,18.05
2023-01-28T17:36:51.907Z,17.67
2023-01-28T17:39:20.113Z,15.15
2023-01-28T17:41:52.139Z,16.02
2023-01-28T17:44:20.130Z,13.27
2023-01-28T17:46:48.489Z,16.08
2023-01-28T17:49:16.868Z,16.42
2023-01-28T17:51:45.199Z,16.35
2023-01-28T17:54:14.436Z,15.80
2023-01-28T17:56:42.211Z,15.95
2023-01-28T17:59:11.675Z,16.67
2023-01-28T18:01:40.860Z,15.57
2023-01-28T18:04:10.362Z,15.70
2023-01-28T18:06:38.224Z,14.77
2023-01-28T18:09:07.532Z,14.85
2023-01-28T18:11:37.632Z,14.18
2023-01-28T18:14:05.953Z,14.70
2023-01-28T18:16:33.929Z,15.00
2023-01-28T18:19:03.104Z,15.23
2023-01-28T18:21:50.525Z,14.43
2023-01-28T18:24:24.473Z,14.05
2023-01-28T18:26:55.275Z,14.18
2023-01-28T18:29:24.201Z,14.18
2023-01-28T18:31:55.192Z,12.75
2023-01-28T18:34:26.590Z,13.30
2023-01-28T18:36:54.994Z,11.82
2023-01-28T18:39:23.789Z,13.57
2023-01-28T18:41:56.482Z,11.23
2023-01-28T18:44:27.012Z,13.77
2023-01-28T18:46:54.915Z,15.65
2023-01-28T18:49:23.188Z,13.27
2023-01-28T18:51:51.425Z,13.60
2023-01-28T18:54:20.865Z,13.88
2023-01-28T18:56:49.351Z,15.18
2023-01-28T18:59:17.856Z,15.10
2023-01-28T19:01:48.265Z,13.13
2023-01-28T19:04:16.935Z,18.17
2023-01-28T19:06:46.531Z,13.80
2023-01-28T19:09:15.868Z,14.27
2023-01-28T19:11:45.180Z,18.73
2023-01-28T19:14:14.875Z,17.05
2023-01-28T19:16:50.364Z,16.62
2023-01-28T19:19:19.129Z,15.35
2023-01-28T19:21:47.940Z,13.82
2023-01-28T19:24:17.521Z,14.35
2023-01-28T19:26:45.907Z,15.52
2023-01-28T19:29:16.388Z,14.55
2023-01-28T19:31:44.793Z,14.15
2023-01-28T19:34:13.410Z,15.13
2023-01-28T19:36:42.802Z,14.07
2023-01-28T19:39:11.712Z,15.50
2023-01-28T19:41:41.668Z,14.02
2023-01-28T19:44:09.923Z,14.32
2023-01-28T19:46:37.599Z,14.52
2023-01-28T19:49:06.588Z,15.52
2023-01-28T19:51:35.447Z,14.65
2023-01-28T19:54:03.706Z,15.52
2023-01-28T19:56:36.538Z,14.05
2023-01-28T19:59:04.990Z,15.10
2023-01-28T20:01:36.059Z,15.57
2023-01-28T20:04:05.071Z,13.00
2023-01-28T20:06:34.164Z,13.93
2023-01-28T20:09:09.089Z,14.02
2023-01-28T20:11:38.511Z,14.07
2023-01-28T20:14:06.789Z,14.07
2023-01-28T20:16:36.145Z,14.73
2023-01-28T20:19:06.997Z,14.98
2023-01-28T20:21:36.158Z,16.35
2023-01-28T20:24:06.931Z,15.35
2023-01-28T20:26:37.496Z,14.90
2023-01-28T20:29:11.046Z,15.07
2023-01-28T20:31:40.743Z,16.35
2023-01-28T20:34:15.127Z,15.15
2023-01-28T20:36:43.682Z,15.27
2023-01-28T20:39:12.738Z,14.73
2023-01-28T20:41:41.276Z,15.77
2023-01-28T20:44:09.782Z,15.68
2023-01-28T20:46:39.391Z,15.73
2023-01-28T20:49:08.112Z,14.65
2023-01-28T20:51:36.903Z,15.05
2023-01-28T20:54:06.043Z,15.75
2023-01-28T20:56:34.666Z,15.32
2023-01-28T20:59:04.527Z,15.98
2023-01-28T21:01:34.752Z,17.87
2023-01-28T21:04:10.536Z,16.92
2023-01-28T21:06:40.334Z,16.65
2023-01-28T21:09:08.694Z,17.83
2023-01-28T21:11:36.825Z,16.20
2023-01-28T21:14:04.638Z,16.40
2023-01-28T21:16:32.793Z,16.08
2023-01-28T21:19:00.546Z,15.18
2023-01-28T21:21:29.287Z,14.98
2023-01-28T21:24:01.113Z,15.10
2023-01-28T21:26:29.915Z,13.98
2023-01-28T21:28:57.942Z,13.20
2023-01-28T21:31:27.022Z,13.13
2023-01-28T21:34:01.540Z,13.98
2023-01-28T21:36:34.231Z,15.43
2023-01-28T21:39:03.745Z,13.85
2023-01-28T21:41:33.030Z,13.80
2023-01-28T21:44:00.419Z,15.68
2023-01-28T21:46:30.947Z,14.55
2023-01-28T21:49:00.304Z,13.55
2023-01-28T21:51:46.062Z,14.25
2023-01-28T21:54:18.387Z,15.40
2023-01-28T21:56:48.672Z,16.17
2023-01-28T21:59:29.325Z,15.57
2023-01-28T22:02:05.761Z,14.30
2023-01-28T22:04:37.965Z,13.80
2023-01-28T22:07:10.082Z,13.85
2023-01-28T22:09:39.731Z,15.23
2023-01-28T22:12:08.174Z,15.75
2023-01-28T22:14:36.651Z,16.67
2023-01-28T22:17:04.952Z,15.07
2023-01-28T22:19:32.377Z,16.17
2023-01-28T22:21:59.757Z,16.45
2023-01-28T22:24:27.828Z,16.50
2023-01-28T22:26:55.251Z,15.60
2023-01-28T22:29:23.492Z,16.10
2023-01-28T22:31:53.084Z,15.93
2023-01-28T22:34:21.211Z,16.48
2023-01-28T22:36:50.235Z,17.48
2023-01-28T22:39:18.406Z,17.90
2023-01-28T22:41:46.754Z,17.05
2023-01-28T22:44:14.689Z,17.87
2023-01-28T22:46:42.434Z,17.15
2023-01-28T22:49:11.867Z,17.50
2023-01-28T22:51:39.340Z,15.43
2023-01-28T22:54:07.263Z,17.95
2023-01-28T22:56:34.674Z,17.23
2023-01-28T22:59:04.011Z,17.35
2023-01-28T23:01:32.214Z,17.08
2023-01-28T23:03:59.683Z,15.77
2023-01-28T23:06:28.198Z,16.08
2023-01-28T23:08:56.674Z,16.12
2023-01-28T23:11:25.526Z,15.13
2023-01-28T23:14:19.849Z,15.82
2023-01-28T23:17:06.907Z,15.70
2023-01-28T23:19:53.169Z,14.57
2023-01-28T23:22:49.657Z,14.73
2023-01-28T23:25:17.963Z,16.70
2023-01-28T23:27:45.940Z,16.12
2023-01-28T23:30:14.506Z,15.13
2023-01-28T23:32:53.855Z,15.68
2023-01-28T23:35:21.657Z,15.65
2023-01-28T23:37:49.112Z,15.93
2023-01-28T23:40:17.129Z,16.73
2023-01-28T23:42:49.521Z,17.25
2023-01-28T23:45:17.713Z,16.60
2023-01-28T23:47:45.392Z,15.93
2023-01-28T23:50:12.990Z,14.38
2023-01-28T23:52:40.457Z,16.00
